createdAt,value
2022-12-09T00:01:22.769Z,22.40
2022-12-09T00:03:50.913Z,21.85
2022-12-09T00:06:27.231Z,23.05
2022-12-09T00:08:56.227Z,21.98
2022-12-09T00:11:25.277Z,22.38
2022-12-09T00:13:55.211Z,21.45
2022-12-09T00:16:23.664Z,23.85
2022-12-09T00:18:52.402Z,22.17
2022-12-09T00:21:27.039Z,21.20
2022-12-09T00:23:56.663Z,21.73
2022-12-09T00:26:25.949Z,23.00
2022-12-09T00:28:54.339Z,23.13
2022-12-09T00:31:25.365Z,21.88
2022-12-09T00:33:56.446Z,25.27
2022-12-09T00:36:24.745Z,23.25
2022-12-09T00:38:53.735Z,21.70
2022-12-09T00:41:21.187Z,22.75
2022-12-09T00:43:48.484Z,21.70
2022-12-09T00:46:16.639Z,21.92
2022-12-09T00:48:46.032Z,19.75
2022-12-09T00:51:20.435Z,22.10
2022-12-09T00:53:48.330Z,29.98
2022-12-09T00:56:15.424Z,31.70
2022-12-09T00:58:42.985Z,37.15
2022-12-09T01:01:09.913Z,43.63
2022-12-09T01:03:36.857Z,41.55
2022-12-09T01:06:13.794Z,34.83
2022-12-09T01:08:42.912Z,27.90
2022-12-09T01:11:19.863Z,29.55
2022-12-09T01:13:48.493Z,31.92
2022-12-09T01:16:27.400Z,26.73
2022-12-09T01:18:57.550Z,24.88
2022-12-09T01:21:25.064Z,23.02
2022-12-09T01:23:52.592Z,21.92
2022-12-09T01:26:20.013Z,25.50
2022-12-09T01:28:47.315Z,27.33
2022-12-09T01:31:20.076Z,22.85
2022-12-09T01:33:48.101Z,21.55
2022-12-09T01:36:19.171Z,21.00
2022-12-09T01:38:47.469Z,19.75
2022-12-09T01:41:16.567Z,20.80
2022-12-09T01:43:45.298Z,20.75
2022-12-09T01:46:12.472Z,21.77
2022-12-09T01:48:45.387Z,22.30
2022-12-09T01:51:18.943Z,21.65
2022-12-09T01:53:50.323Z,23.90
2022-12-09T01:56:30.397Z,22.40
2022-12-09T01:59:04.208Z,21.50
2022-12-09T02:01:32.124Z,22.20
2022-12-09T02:04:00.005Z,22.35
2022-12-09T02:06:27.462Z,20.60
2022-12-09T02:08:55.328Z,21.20
2022-12-09T02:12:04.225Z,21.08
2022-12-09T02:14:42.992Z,19.85
2022-12-09T02:17:36.807Z,19.85
2022-12-09T02:20:28.466Z,20.40
2022-12-09T02:23:17.066Z,19.08
2022-12-09T02:25:49.814Z,19.90
2022-12-09T02:28:50.493Z,20.13
2022-12-09T02:31:24.243Z,19.50
2022-12-09T02:34:27.497Z,21.77
2022-12-09T02:37:10.462Z,20.88
2022-12-09T02:39:45.758Z,22.73
2022-12-09T02:42:17.538Z,22.63
2022-12-09T02:44:48.900Z,23.25
2022-12-09T02:47:19.601Z,23.67
2022-12-09T02:49:51.942Z,21.77
2022-12-09T02:52:20.463Z,20.13
2022-12-09T02:54:48.257Z,19.58
2022-12-09T02:57:23.363Z,19.33
2022-12-09T02:59:50.122Z,21.95
2022-12-09T03:02:37.987Z,19.75
2022-12-09T03:05:22.149Z,18.95
2022-12-09T03:08:17.994Z,17.27
2022-12-09T03:10:57.209Z,20.35
2022-12-09T03:13:52.409Z,18.02
2022-12-09T03:16:44.695Z,19.08
2022-12-09T03:19:17.449Z,20.75
2022-12-09T03:21:47.356Z,19.55
2022-12-09T03:24:20.115Z,19.75
2022-12-09T03:26:49.143Z,20.77
2022-12-09T03:29:21.944Z,19.75
2022-12-09T03:31:51.652Z,18.58
2022-12-09T03:34:25.721Z,18.90
2022-12-09T03:36:53.803Z,20.35
2022-12-09T03:39:28.018Z,17.80
2022-12-09T03:41:59.005Z,21.13
2022-12-09T03:44:45.779Z,22.13
2022-12-09T03:47:12.965Z,22.88
2022-12-09T03:49:40.560Z,20.05
2022-12-09T03:52:25.877Z,19.65
2022-12-09T03:55:08.237Z,19.30
2022-12-09T03:57:38.612Z,18.95
2022-12-09T04:00:07.288Z,17.70
2022-12-09T04:02:35.207Z,18.25
2022-12-09T04:05:02.348Z,17.48
2022-12-09T04:07:29.579Z,16.73
2022-12-09T04:09:56.656Z,16.92
2022-12-09T04:12:23.655Z,18.25
2022-12-09T04:14:50.704Z,16.23
2022-12-09T04:17:18.027Z,16.75
2022-12-09T04:19:45.087Z,17.88
2022-12-09T04:22:12.100Z,18.23
2022-12-09T04:24:38.957Z,19.00
2022-12-09T04:27:05.906Z,19.35
2022-12-09T04:29:33.196Z,19.05
2022-12-09T04:32:00.423Z,19.80
2022-12-09T04:34:27.365Z,19.35
2022-12-09T04:36:54.246Z,18.58
2022-12-09T04:39:21.181Z,18.48
2022-12-09T04:41:48.369Z,20.83
2022-12-09T04:44:15.167Z,25.55
2022-12-09T04:46:42.080Z,26.75
2022-12-09T04:49:10.143Z,27.52
2022-12-09T04:51:40.039Z,28.67
2022-12-09T04:54:10.659Z,28.73
2022-12-09T04:56:37.607Z,29.73
2022-12-09T04:59:05.519Z,26.08
2022-12-09T05:01:33.208Z,26.23
2022-12-09T05:04:00.506Z,26.50
2022-12-09T05:06:28.339Z,22.48
2022-12-09T05:08:55.813Z,23.88
2022-12-09T05:11:24.985Z,22.77
2022-12-09T05:13:53.955Z,20.38
2022-12-09T05:16:21.622Z,19.73
2022-12-09T05:18:49.280Z,21.55
2022-12-09T05:21:20.223Z,21.00
2022-12-09T05:23:48.818Z,22.05
2022-12-09T05:26:19.986Z,19.20
2022-12-09T05:28:47.457Z,18.92
2022-12-09T05:31:19.962Z,17.55
2022-12-09T05:33:48.737Z,19.42
2022-12-09T05:36:21.145Z,19.15
2022-12-09T05:38:49.090Z,17.75
2022-12-09T05:41:17.751Z,17.98
2022-12-09T05:43:45.209Z,19.42
2022-12-09T05:46:14.770Z,19.90
2022-12-09T05:48:42.594Z,18.83
2022-12-09T05:51:28.590Z,20.08
2022-12-09T05:54:00.417Z,20.60
2022-12-09T05:56:28.383Z,19.33
2022-12-09T05:58:56.473Z,18.02
2022-12-09T06:01:25.174Z,18.02
2022-12-09T06:03:54.195Z,16.75
2022-12-09T06:06:26.849Z,19.92
2022-12-09T06:09:02.707Z,17.27
2022-12-09T06:11:32.428Z,16.80
2022-12-09T06:13:59.563Z,21.13
2022-12-09T06:16:27.083Z,24.83
2022-12-09T06:18:54.356Z,28.33
2022-12-09T06:21:22.774Z,27.13
2022-12-09T06:23:51.390Z,26.45
2022-12-09T06:26:25.442Z,22.73
2022-12-09T06:28:54.182Z,21.63
2022-12-09T06:31:22.172Z,24.92
2022-12-09T06:33:58.366Z,21.77
2022-12-09T06:36:28.417Z,22.70
2022-12-09T06:38:57.188Z,21.40
2022-12-09T06:41:25.355Z,22.30
2022-12-09T06:43:52.605Z,21.83
2022-12-09T06:46:25.441Z,22.27
2022-12-09T06:48:55.071Z,25.88
2022-12-09T06:51:25.353Z,26.80
2022-12-09T06:53:53.557Z,27.85
2022-12-09T06:56:21.648Z,27.55
2022-12-09T06:58:49.084Z,24.98
2022-12-09T07:01:25.876Z,26.08
2022-12-09T07:03:57.041Z,23.67
2022-12-09T07:06:37.556Z,26.52
2022-12-09T07:09:11.746Z,25.25
2022-12-09T07:11:40.503Z,22.08
2022-12-09T07:14:08.098Z,24.95
2022-12-09T07:16:36.175Z,24.80
2022-12-09T07:19:04.530Z,23.83
2022-12-09T07:21:32.587Z,23.98
2022-12-09T07:24:03.918Z,23.08
2022-12-09T07:26:34.518Z,21.92
2022-12-09T07:29:06.639Z,22.17
2022-12-09T07:31:35.504Z,22.75
2022-12-09T07:34:04.179Z,24.52
2022-12-09T07:36:35.141Z,25.20
2022-12-09T07:39:15.451Z,25.30
2022-12-09T07:41:43.332Z,23.10
2022-12-09T07:44:12.282Z,27.42
2022-12-09T07:46:40.043Z,23.42
2022-12-09T07:49:07.606Z,24.55
2022-12-09T07:51:35.482Z,24.02
2022-12-09T07:54:02.759Z,23.83
2022-12-09T07:56:30.219Z,21.92
2022-12-09T07:58:58.143Z,21.95
2022-12-09T08:01:29.408Z,23.35
2022-12-09T08:03:58.051Z,22.15
2022-12-09T08:06:29.418Z,22.33
2022-12-09T08:09:03.108Z,21.38
2022-12-09T08:11:32.353Z,19.13
2022-12-09T08:14:08.946Z,21.17
2022-12-09T08:16:38.376Z,21.33
2022-12-09T08:19:05.715Z,21.77
2022-12-09T08:21:34.429Z,22.40
2022-12-09T08:24:04.148Z,20.65
2022-12-09T08:26:32.632Z,23.48
2022-12-09T08:29:00.987Z,24.10
2022-12-09T08:31:28.870Z,23.50
2022-12-09T08:33:57.081Z,21.77
2022-12-09T08:36:28.285Z,19.85
2022-12-09T08:39:00.095Z,22.08
2022-12-09T08:41:39.113Z,24.13
2022-12-09T08:44:09.718Z,23.13
2022-12-09T08:46:39.904Z,24.50
2022-12-09T08:49:08.292Z,23.15
2022-12-09T08:51:35.959Z,23.77
2022-12-09T08:54:04.251Z,23.73
2022-12-09T08:56:32.807Z,25.05
2022-12-09T08:58:59.809Z,29.83
2022-12-09T09:01:33.607Z,27.90
2022-12-09T09:04:08.574Z,20.27
2022-12-09T09:06:38.711Z,26.90
2022-12-09T09:09:07.978Z,30.17
2022-12-09T09:11:35.574Z,28.50
2022-12-09T09:14:05.807Z,28.13
2022-12-09T09:16:35.739Z,27.73
2022-12-09T09:19:06.725Z,30.55
2022-12-09T09:21:35.716Z,29.33
2022-12-09T09:24:12.105Z,31.70
2022-12-09T09:26:42.600Z,30.75
2022-12-09T09:29:16.078Z,31.42
2022-12-09T09:31:44.213Z,26.73
2022-12-09T09:34:11.654Z,32.05
2022-12-09T09:36:40.441Z,27.55
2022-12-09T09:39:07.698Z,28.60
2022-12-09T09:42:08.257Z,27.95
2022-12-09T09:44:46.996Z,27.50
2022-12-09T09:47:38.420Z,29.15
2022-12-09T09:50:38.724Z,27.88
2022-12-09T09:53:28.226Z,24.35
2022-12-09T09:56:01.504Z,24.40
2022-12-09T09:58:57.439Z,29.92
2022-12-09T10:01:32.372Z,25.52
2022-12-09T10:04:19.424Z,26.13
2022-12-09T10:07:34.503Z,29.00
2022-12-09T10:10:20.696Z,26.40
2022-12-09T10:13:11.100Z,24.65
2022-12-09T10:18:33.994Z,23.55
2022-12-09T10:21:01.637Z,18.93
2022-12-09T10:23:33.036Z,26.15
2022-12-09T10:26:06.131Z,24.00
2022-12-09T10:28:39.831Z,25.27
2022-12-09T10:31:07.022Z,27.08
2022-12-09T10:33:38.054Z,25.52
2022-12-09T10:36:07.910Z,25.10
2022-12-09T10:38:41.092Z,22.75
2022-12-09T10:41:50.719Z,22.83
2022-12-09T10:44:22.495Z,20.98
2022-12-09T10:46:58.345Z,21.15
2022-12-09T10:49:25.673Z,38.33
2022-12-09T10:51:55.740Z,24.27
2022-12-09T10:54:44.899Z,22.45
2022-12-09T10:57:12.526Z,21.27
2022-12-09T10:59:43.121Z,22.27
2022-12-09T11:02:10.144Z,20.33
2022-12-09T11:04:44.376Z,20.77
2022-12-09T11:07:28.002Z,21.45
2022-12-09T11:09:58.117Z,19.17
2022-12-09T11:12:31.987Z,19.85
2022-12-09T11:15:27.177Z,19.83
2022-12-09T11:18:00.772Z,21.58
2022-12-09T11:20:31.689Z,20.75
2022-12-09T11:23:06.812Z,20.75
2022-12-09T11:25:37.036Z,20.58
2022-12-09T11:28:15.952Z,20.80
2022-12-09T11:31:27.590Z,20.05
2022-12-09T11:33:53.148Z,20.15
2022-12-09T11:36:30.838Z,19.85
2022-12-09T11:39:23.155Z,20.80
2022-12-09T11:42:19.617Z,21.58
2022-12-09T11:45:06.983Z,21.48
2022-12-09T11:50:32.507Z,20.23
2022-12-09T11:53:38.111Z,19.55
2022-12-09T11:56:18.059Z,21.15
2022-12-09T11:59:02.175Z,19.65
2022-12-09T12:02:04.724Z,19.67
2022-12-09T12:04:38.175Z,20.92
2022-12-09T12:07:14.225Z,21.15
2022-12-09T12:09:59.544Z,20.83
2022-12-09T12:13:00.425Z,21.83
2022-12-09T12:16:17.659Z,21.15
2022-12-09T12:18:53.132Z,19.27
2022-12-09T12:21:50.159Z,20.67
2022-12-09T12:24:35.427Z,22.25
2022-12-09T12:27:29.701Z,23.23
2022-12-09T12:30:11.653Z,20.88
2022-12-09T12:36:46.010Z,19.95
2022-12-09T12:39:28.647Z,19.42
2022-12-09T12:42:26.785Z,19.27
2022-12-09T12:45:43.151Z,18.77
2022-12-09T12:48:33.123Z,18.60
2022-12-09T12:51:10.922Z,17.83
2022-12-09T12:54:15.339Z,17.98
2022-12-09T12:56:57.520Z,15.98
2022-12-09T12:59:44.100Z,16.75
2022-12-09T13:02:44.881Z,15.55
2022-12-09T13:05:25.043Z,14.85
2022-12-09T13:08:28.936Z,13.38
2022-12-09T13:10:59.690Z,10.75
2022-12-09T13:13:37.365Z,9.55
2022-12-09T13:16:28.652Z,9.52
2022-12-09T13:19:08.596Z,8.05
2022-12-09T13:21:35.458Z,10.95
2022-12-09T13:24:27.286Z,8.15
2022-12-09T13:27:18.451Z,9.23
2022-12-09T13:30:03.740Z,11.70
2022-12-09T13:33:05.857Z,8.45
2022-12-09T13:35:55.825Z,7.53
2022-12-09T13:38:43.237Z,7.25
2022-12-09T13:41:31.740Z,8.82
2022-12-09T13:44:14.822Z,7.53
2022-12-09T13:46:43.172Z,6.82
2022-12-09T13:49:30.373Z,7.15
2022-12-09T13:51:57.346Z,7.32
2022-12-09T13:54:27.738Z,9.57
2022-12-09T13:57:12.837Z,8.80
2022-12-09T14:02:40.423Z,6.43
2022-12-09T14:05:16.072Z,5.80
2022-12-09T14:07:50.460Z,6.72
2022-12-09T14:10:40.687Z,8.38
2022-12-09T14:13:22.972Z,5.60
2022-12-09T14:16:27.735Z,5.75
2022-12-09T14:18:58.661Z,6.93
2022-12-09T14:21:30.582Z,6.15
2022-12-09T14:24:09.761Z,8.30
2022-12-09T14:26:44.113Z,9.90
2022-12-09T14:29:11.666Z,9.55
2022-12-09T14:32:03.104Z,8.95
2022-12-09T14:34:35.025Z,8.13
2022-12-09T14:37:45.215Z,7.90
2022-12-09T14:40:15.143Z,5.85
2022-12-09T14:43:05.290Z,5.70
2022-12-09T14:45:57.760Z,5.95
2022-12-09T14:48:32.090Z,6.40
2022-12-09T14:51:20.554Z,5.80
2022-12-09T14:53:54.364Z,7.13
2022-12-09T14:56:23.222Z,7.53
2022-12-09T14:58:56.015Z,8.57
2022-12-09T15:01:23.015Z,8.07
2022-12-09T15:03:59.298Z,6.50
2022-12-09T15:06:29.805Z,5.70
2022-12-09T15:08:58.989Z,5.53
2022-12-09T15:11:33.426Z,5.35
2022-12-09T15:14:26.566Z,4.45
2022-12-09T15:16:56.403Z,4.85
2022-12-09T15:19:58.524Z,4.55
2022-12-09T15:22:29.335Z,4.88
2022-12-09T15:24:56.438Z,4.97
2022-12-09T15:27:27.305Z,4.63
2022-12-09T15:29:54.618Z,8.50
2022-12-09T15:32:29.003Z,9.63
2022-12-09T15:35:15.474Z,8.77
2022-12-09T15:37:42.991Z,13.60
2022-12-09T15:40:16.639Z,13.00
2022-12-09T15:42:47.745Z,9.75
2022-12-09T15:45:23.294Z,8.35
2022-12-09T15:48:08.204Z,9.43
2022-12-09T15:50:58.935Z,8.90
2022-12-09T15:53:37.409Z,9.50
2022-12-09T15:56:15.500Z,7.90
2022-12-09T15:58:51.648Z,6.93
2022-12-09T16:01:27.042Z,7.63
2022-12-09T16:03:56.909Z,8.45
2022-12-09T16:06:34.186Z,8.82
2022-12-09T16:09:02.195Z,7.93
2022-12-09T16:11:42.345Z,7.63
2022-12-09T16:14:10.777Z,7.10
2022-12-09T16:17:02.243Z,9.80
2022-12-09T16:19:36.502Z,12.48
2022-12-09T16:22:20.084Z,10.60
2022-12-09T16:25:14.270Z,11.45
2022-12-09T16:27:48.871Z,8.00
2022-12-09T16:30:19.161Z,10.15
2022-12-09T16:32:55.854Z,9.00
2022-12-09T16:35:35.040Z,8.55
2022-12-09T16:38:10.913Z,8.48
2022-12-09T16:40:43.772Z,8.68
2022-12-09T16:43:16.722Z,8.45
2022-12-09T16:45:46.394Z,9.75
2022-12-09T16:48:13.791Z,10.30
2022-12-09T16:50:54.132Z,10.73
2022-12-09T16:53:52.290Z,9.45
2022-12-09T16:56:26.982Z,9.48
2022-12-09T16:58:54.859Z,9.27
2022-12-09T17:01:27.242Z,10.30
2022-12-09T17:04:01.764Z,9.48
2022-12-09T17:06:28.660Z,11.13
2022-12-09T17:08:55.417Z,11.35
2022-12-09T17:11:22.842Z,10.23
2022-12-09T17:13:50.480Z,10.15
2022-12-09T17:16:22.013Z,10.75
2022-12-09T17:18:49.888Z,11.13
2022-12-09T17:21:17.374Z,11.88
2022-12-09T17:23:45.459Z,13.40
2022-12-09T17:26:18.444Z,12.43
2022-12-09T17:28:46.683Z,13.23
2022-12-09T17:31:23.736Z,13.23
2022-12-09T17:33:51.651Z,10.98
2022-12-09T17:36:19.477Z,11.68
2022-12-09T17:38:46.856Z,11.43
2022-12-09T17:41:19.214Z,11.48
2022-12-09T17:43:46.749Z,15.18
2022-12-09T17:46:14.340Z,13.70
2022-12-09T17:48:42.070Z,11.52
2022-12-09T17:51:18.128Z,11.25
2022-12-09T17:53:46.594Z,11.07
2022-12-09T17:56:17.964Z,11.07
2022-12-09T17:58:44.802Z,11.38
2022-12-09T18:01:18.916Z,13.00
2022-12-09T18:04:07.876Z,12.15
2022-12-09T18:06:34.899Z,11.93
2022-12-09T18:09:04.736Z,10.85
2022-12-09T18:11:32.095Z,10.45
2022-12-09T18:13:59.371Z,11.43
2022-12-09T18:16:26.631Z,10.60
2022-12-09T18:18:53.745Z,10.85
2022-12-09T18:21:21.102Z,10.73
2022-12-09T18:23:48.830Z,10.18
2022-12-09T18:26:19.142Z,9.77
2022-12-09T18:28:46.618Z,10.23
2022-12-09T18:31:19.214Z,10.77
2022-12-09T18:33:46.688Z,11.02
2022-12-09T18:36:17.737Z,12.60
2022-12-09T18:38:45.680Z,12.13
2022-12-09T18:41:19.093Z,12.00
2022-12-09T18:43:49.431Z,16.00
2022-12-09T18:46:25.232Z,16.80
2022-12-09T18:49:08.194Z,17.35
2022-12-09T18:51:36.515Z,14.63
2022-12-09T18:54:04.494Z,16.77
2022-12-09T18:56:32.837Z,15.25
2022-12-09T18:59:08.757Z,13.50
2022-12-09T19:01:40.976Z,13.77
2022-12-09T19:04:14.555Z,15.10
2022-12-09T19:06:44.975Z,15.82
2022-12-09T19:09:21.705Z,17.55
2022-12-09T19:11:50.361Z,16.67
2022-12-09T19:14:19.891Z,16.85
2022-12-09T19:16:47.508Z,14.20
2022-12-09T19:19:17.978Z,14.25
2022-12-09T19:21:45.848Z,15.35
2022-12-09T19:24:23.321Z,18.33
2022-12-09T19:26:53.978Z,16.35
2022-12-09T19:29:22.494Z,17.17
2022-12-09T19:31:51.599Z,17.35
2022-12-09T19:34:23.166Z,15.27
2022-12-09T19:36:52.929Z,15.05
2022-12-09T19:39:23.754Z,14.32
2022-12-09T19:41:51.360Z,14.90
2022-12-09T19:44:37.029Z,14.43
2022-12-09T19:47:05.034Z,18.45
2022-12-09T19:49:32.141Z,24.67
2022-12-09T19:52:00.086Z,20.77
2022-12-09T19:54:29.894Z,21.75
2022-12-09T19:56:57.229Z,20.17
2022-12-09T19:59:24.175Z,20.73
2022-12-09T20:01:51.832Z,20.15
2022-12-09T20:04:48.165Z,20.75
2022-12-09T20:07:10.121Z,20.92
2022-12-09T20:09:37.905Z,19.88
2022-12-09T20:12:05.401Z,18.55
2022-12-09T20:14:32.502Z,19.02
2022-12-09T20:16:59.496Z,15.93
2022-12-09T20:19:26.366Z,17.17
2022-12-09T20:21:53.169Z,17.67
2022-12-09T20:24:19.952Z,15.32
2022-12-09T20:26:46.795Z,16.02
2022-12-09T20:29:13.769Z,16.25
2022-12-09T20:31:42.775Z,16.63
2022-12-09T20:34:16.367Z,16.45
2022-12-09T20:36:45.365Z,15.70
2022-12-09T20:39:18.381Z,17.38
2022-12-09T20:41:46.275Z,17.63
2022-12-09T20:44:14.266Z,19.55
2022-12-09T20:46:45.823Z,22.75
2022-12-09T20:49:12.616Z,26.02
2022-12-09T20:51:41.142Z,28.67
2022-12-09T20:54:13.282Z,33.53
2022-12-09T20:56:40.910Z,33.60
2022-12-09T20:59:10.128Z,36.92
2022-12-09T21:01:37.739Z,28.73
2022-12-09T21:04:07.071Z,30.88
2022-12-09T21:06:38.118Z,29.30
2022-12-09T21:09:15.078Z,27.77
2022-12-09T21:11:42.005Z,27.33
2022-12-09T21:14:11.067Z,26.55
2022-12-09T21:16:42.172Z,25.63
2022-12-09T21:19:13.942Z,24.95
2022-12-09T21:21:45.441Z,26.20
2022-12-09T21:24:14.899Z,23.80
2022-12-09T21:26:42.159Z,24.38
2022-12-09T21:29:11.426Z,25.45
2022-12-09T21:31:41.101Z,24.10
2022-12-09T21:34:09.901Z,23.33
2022-12-09T21:36:41.072Z,22.30
2022-12-09T21:39:09.164Z,21.20
2022-12-09T21:41:37.292Z,21.90
2022-12-09T21:44:05.721Z,19.95
2022-12-09T21:46:36.602Z,20.00
2022-12-09T21:49:06.019Z,19.42
2022-12-09T21:51:34.541Z,18.25
2022-12-09T21:54:02.139Z,17.58
2022-12-09T21:56:32.869Z,16.38
2022-12-09T21:59:00.279Z,17.80
2022-12-09T22:01:39.869Z,17.52
2022-12-09T22:04:11.190Z,17.50
2022-12-09T22:06:39.546Z,17.13
2022-12-09T22:09:08.671Z,17.38
2022-12-09T22:11:37.829Z,17.02
2022-12-09T22:14:07.718Z,20.27
2022-12-09T22:16:39.179Z,20.30
2022-12-09T22:19:11.452Z,20.73
2022-12-09T22:21:38.286Z,20.33
2022-12-09T22:24:07.649Z,26.25
2022-12-09T22:26:35.246Z,25.23
2022-12-09T22:29:04.810Z,26.90
2022-12-09T22:31:36.569Z,31.15
2022-12-09T22:34:08.943Z,26.88
2022-12-09T22:36:37.222Z,23.95
2022-12-09T22:39:07.282Z,19.70
2022-12-09T22:41:35.581Z,20.35
2022-12-09T22:44:02.910Z,19.98
2022-12-09T22:46:33.111Z,18.40
2022-12-09T22:49:05.603Z,19.85
2022-12-09T22:51:35.851Z,19.17
2022-12-09T22:54:08.256Z,19.52
2022-12-09T22:56:41.102Z,17.27
2022-12-09T22:59:08.677Z,16.40
2022-12-09T23:01:37.611Z,17.42
2022-12-09T23:04:07.301Z,16.70
2022-12-09T23:06:36.705Z,16.25
2022-12-09T23:09:05.623Z,15.02
2022-12-09T23:11:32.869Z,14.25
2022-12-09T23:14:00.302Z,14.15
2022-12-09T23:16:28.078Z,13.50
2022-12-09T23:18:57.023Z,14.50
2022-12-09T23:21:27.698Z,14.93
2022-12-09T23:23:58.492Z,15.85
2022-12-09T23:26:28.157Z,16.60
2022-12-09T23:28:59.488Z,15.98
2022-12-09T23:31:31.559Z,14.23
2022-12-09T23:33:59.576Z,14.65
2022-12-09T23:36:33.782Z,17.40
2022-12-09T23:39:03.781Z,13.60
2022-12-09T23:41:31.433Z,13.80
2022-12-09T23:43:58.365Z,14.68
2022-12-09T23:46:28.158Z,14.77
2022-12-09T23:48:56.838Z,14.52
2022-12-09T23:51:31.417Z,14.10
2022-12-09T23:56:31.566Z,15.63
2022-12-09T23:59:05.003Z,12.00
